Create Custom Reports and Graphics: Custom Report

Anza Map

Map

10 Minute Data

Latest Observation

23 Stations

10 Minute Data | America/Los_Angeles
as of 5/10/21 1:35 AM PDT
Station Date Time Temp (°F) Dew Pt (°F) RH (%) Wind Spd (mph) Wind Dir (°) Wind Gust (mph) Wind Gst Dir (°) Daily Max Temp (°F) Daily Min Temp (°F) Daily Max Wind (mph) Max Wind Dir (°)
Thomas Mountain 5/10/21 0130 53.1   4.0 33.9   2.6 48   11 2.5 N | 353 5.3 N | 5 54.1 52.6 7.2 WNW | 300
Red Mountain 5/10/21 0130 52.7   9.8 46.3   12.4 79   44 5.4 W | 281 6.4 W | 271 53.5 52.5 8.3 W | 261
Coyote Canyon 5/10/21 0130 48.9   10.3 46.7   9.8 92   49 15.5 N | 1 21.3 N | 1 49.7 48.8 21.7 N | 1
Pinyon 5/10/21 0130 60.4   5.5 28.0   1.6 29   7 15.7 SW | 225 22.6 SW | 228 60.8 59.9 23.2 SW | 215
Aguanga Barbara Trail 5/10/21 0130 51.7   2.8 48.0   3.3 87   18 2.8 SSE | 150 4.4 SE | 138 52.3 51.4 4.4 SE | 138
SCE Idyllwild Ridge 5/10/21 0130 54.1   1.2 11.8   14.1 18   14 1.9 ESE | 102 3.4 E | 98 56.1 53.4 3.4 ESE | 120
SCE Idyllwild Hwy 5/10/21 0130 49.7   2.4 46.8   1.3 90   12 0.7 S | 176 1.5 S | 169 50.6 49.4 1.9 S | 187
SCE Apple Canyon 5/10/21 0130 53.3   6.3 36.1   7.6 52   21 2.3 NNW | 341 3.9 N | 350 54.4 53.0 3.9 N | 350
SCE Keen Ridge 5/10/21 0130 51.5   7.9 43.2   12.2 73   39 6.7 W | 272 7.7 W | 273 51.8 47.7 7.7 W | 273
SCE Aguanga 5/10/21 0130 51.2   6.6 50.0   2.2 96   26 1.6 SE | 128 3.2 SSE | 150 52.0 51.1 3.6 S | 169
SCE Butterfield Valley 5/10/21 0130 54.2   1.8 52.1   4.1 92   8 2.3 SE | 138 5.6 ESE | 118 54.7 54.0 5.6 ESE | 118
SCE Anza Rd 5/10/21 0130 55.2   4.3 52.5   4.5 90   1 1.9 SW | 220 3.2 WSW | 251 55.6 55.1 4.2 SSW | 204
SCE Wilson Valley Rd 5/10/21 0130 50.5   6.7 50.3   2.0 99   27 0.1 N | 4 1.2 N | 354 50.9 50.1 3.1 N | 353
SCE Weber Valley 5/10/21 0130 45.8   9.8 45.3   0.2 98   30 1.1 E | 82 2.3 ENE | 59 46.5 45.4 2.5 WNW | 296
SCE Red Mountain Rd 5/10/21 0130 49.0   11.2 49.0   0.9 100   36 5.9 N | 358 7.5 N | 0 49.8 48.9 8.5 N | 9
SCE Brown Canyon 5/10/21 0130 50.2   3.6 47.2   0.0 90   11 0.6 ESE | 115 2.2 ESE | 103 50.8 50.0 2.2 ESE | 103
SCE Cedar Ave 5/10/21 0130 54.1   0.4 51.9   5.3 92   18 1.6 WSW | 242 3.7 WSW | 250 54.7 53.5 5.5 W | 281
SCE Anderson Dr 5/10/21 0120 53.7   3.3 51.9   3.1 94   20 1.4 WSW | 250 4.5 WSW | 255 54.0 53.3 4.5 W | 271
SCE Pachea Trail 5/10/21 0130 52.5   5.1 51.8   0.9 97   19 1.0 S | 190 2.0 SSW | 199 52.9 52.0 4.4 SSW | 192
SCE Painted Canyon Rd 5/10/21 0130 67.4   5.6 51.1   2.8 56   14 0.1 WNW | 302 1.0 WNW | 301 69.6 67.1 2.7 SW | 235
Oak Grove 5/10/21 0130 45.7   5.3 43.0   1.9 90   11 2.3 SE | 135 3.2 SE | 140 47.4 45.2 3.9 SE | 135
Chihuahua Valley 5/10/21 0130 46.4   14.5 42.7   12.0 87   55 3.5 NE | 47 4.1 NE | 48 47.9 45.8 5.0 NE | 48
Sunshine Summit 5/10/21 0130 49.1   6.6 45.1   1.8 86   14 5.1 WNW | 285 6.2 WNW | 283 51.8 48.8 6.2 WNW | 283
Max     67.4 52.5 100 15.7 - 22.6 - 69.6 67.1 23.2 -
Avg     52.2 44.5 80 3.6 - 5.5 - - - - -
Min     45.7 11.8 18 0.1 - 1.0 - 46.5 45.2 1.9 -